createdAt,value
2022-08-01T00:03:34.144Z,26
2022-08-01T00:18:34.102Z,25.3
2022-08-01T00:33:34.090Z,24.9
2022-08-01T00:48:34.014Z,24.3
2022-08-01T01:03:57.386Z,23.8
2022-08-01T01:18:33.959Z,23.3
2022-08-01T01:33:33.968Z,23
2022-08-01T01:48:33.901Z,22.9
2022-08-01T02:03:33.916Z,22.7
2022-08-01T02:18:33.852Z,22.6
2022-08-01T02:33:33.858Z,22.4
2022-08-01T02:48:33.811Z,22
2022-08-01T03:03:33.806Z,21.7
2022-08-01T03:18:33.734Z,21.4
2022-08-01T03:33:33.749Z,21.3
2022-08-01T03:48:33.701Z,21
2022-08-01T04:03:33.656Z,20.7
2022-08-01T04:18:33.631Z,20.5
2022-08-01T04:33:33.601Z,20.3
2022-08-01T04:48:33.586Z,20.3
2022-08-01T05:03:38.415Z,22.1
2022-08-01T05:18:33.521Z,24.7
2022-08-01T05:33:33.523Z,26.8
2022-08-01T05:48:33.492Z,29.5
2022-08-01T06:03:33.463Z,30.2
2022-08-01T06:18:33.424Z,29.6
2022-08-01T06:33:33.420Z,29.3
2022-08-01T06:48:33.391Z,29.6
2022-08-01T07:03:52.843Z,31
2022-08-01T07:18:33.308Z,31.5
2022-08-01T07:33:48.540Z,31.4
2022-08-01T07:48:33.279Z,31.4
2022-08-01T08:03:33.249Z,31.3
2022-08-01T08:18:33.193Z,31.9
2022-08-01T08:33:33.202Z,32.9
2022-08-01T08:48:33.170Z,34.1
2022-08-01T09:03:33.179Z,33.9
2022-08-01T09:18:33.093Z,34.5
2022-08-01T09:33:36.909Z,35.2
2022-08-01T09:48:33.033Z,34.9
2022-08-01T10:03:33.098Z,35.9
2022-08-01T10:18:32.991Z,35
2022-08-01T10:33:50.929Z,35.3
2022-08-01T10:48:32.930Z,36.3
2022-08-01T11:03:55.725Z,33.5
2022-08-01T11:18:32.898Z,32.5
2022-08-01T11:33:32.884Z,31.7
2022-08-01T11:48:32.846Z,31.2
2022-08-01T12:03:33.653Z,31
2022-08-01T12:18:32.769Z,31
2022-08-01T12:33:35.182Z,31
2022-08-01T12:48:32.720Z,31.2
2022-08-01T13:03:32.720Z,31.5
2022-08-01T13:18:32.692Z,31.7
2022-08-01T13:33:32.668Z,31.8
2022-08-01T13:48:32.650Z,31.9
2022-08-01T14:03:33.536Z,32
2022-08-01T14:18:32.550Z,32.3
2022-08-01T14:33:32.558Z,32.2
2022-08-01T14:48:32.497Z,32.4
2022-08-01T15:03:32.508Z,32.5
2022-08-01T15:18:32.919Z,32.5
2022-08-01T15:33:32.455Z,32.7
2022-08-01T15:48:35.030Z,32.6
2022-08-01T16:03:33.182Z,32.7
2022-08-01T16:18:33.129Z,32.8
2022-08-01T16:33:40.215Z,32.7
2022-08-01T16:48:33.062Z,32.5
2022-08-01T17:03:46.908Z,32.2
2022-08-01T17:18:33.011Z,32.1
2022-08-01T17:33:44.267Z,31.9
2022-08-01T17:48:32.958Z,31.6
2022-08-01T18:03:32.927Z,31.3
2022-08-01T18:18:34.115Z,31
2022-08-01T18:33:32.889Z,30.8
2022-08-01T18:48:32.846Z,30.6
2022-08-01T19:03:32.848Z,30.4
2022-08-01T19:18:32.790Z,30.1
2022-08-01T19:33:32.793Z,29.9
2022-08-01T19:48:32.736Z,29.6
2022-08-01T20:03:32.905Z,29.3
2022-08-01T20:18:32.675Z,29.2
2022-08-01T20:33:32.681Z,29
2022-08-01T21:03:32.621Z,28.5
2022-08-01T21:18:32.561Z,28.3
2022-08-01T21:33:32.575Z,28.1
2022-08-01T21:48:32.514Z,27.9
2022-08-01T22:03:32.524Z,27.8
2022-08-01T22:18:32.454Z,27.5
2022-08-01T22:33:32.460Z,27.3
2022-08-01T22:48:34.795Z,26.9
2022-08-01T23:03:32.425Z,26.4
2022-08-01T23:18:32.347Z,25.9
2022-08-01T23:33:32.350Z,25.4
2022-08-01T23:48:32.279Z,25
